Time;durP1;ratioP1;P1;durP2;ratioP2;P2;SDS_P1;SDS_P2;PMS_P1;PMS_P2;Temp;Humidity;BMP_temperature;BMP_pressure;BME280_temperature;BME280_humidity;BME280_pressure;Samples;Min_cycle;Max_cycle;Signal;HPM_P1;HPM_P2
2021/07/22 00:00:43;;;;;;;16.27;9.40;;;;;;;;;;3593559;39;20926;-67
2021/07/22 00:03:08;;;;;;;13.63;8.70;;;;;;;;;;3594300;39;20298;-69
2021/07/22 00:05:33;;;;;;;15.35;9.13;;;;;;;;;;3580424;39;20802;-67
2021/07/22 00:07:59;;;;;;;17.87;9.43;;;;;;;;;;3594995;39;20125;-67
2021/07/22 00:10:24;;;;;;;15.47;8.73;;;;;;;;;;3593898;39;20112;-69
2021/07/22 00:12:50;;;;;;;15.88;9.10;;;;;;;;;;3594847;39;20039;-68
2021/07/22 00:15:15;;;;;;;18.88;9.15;;;;;;;;;;3594575;39;20028;-68
2021/07/22 00:17:40;;;;;;;16.60;9.03;;;;;;;;;;3597587;39;20035;-68
2021/07/22 00:20:05;;;;;;;18.50;9.23;;;;;;;;;;3595072;39;20031;-68
2021/07/22 00:22:32;;;;;;;17.33;9.68;;;;;;;;;;3594733;39;20532;-68
2021/07/22 00:24:57;;;;;;;17.90;8.68;;;;;;;;;;3591147;39;20030;-68
2021/07/22 00:27:22;;;;;;;16.80;9.50;;;;;;;;;;3593738;39;20070;-68
2021/07/22 00:29:47;;;;;;;18.03;9.40;;;;;;;;;;3581566;39;20323;-68
2021/07/22 00:32:13;;;;;;;15.35;9.60;;;;;;;;;;3588679;39;20440;-68
2021/07/22 00:34:38;;;;;;;15.43;9.20;;;;;;;;;;3587705;39;20035;-62
2021/07/22 00:37:03;;;;;;;15.93;9.38;;;;;;;;;;3585438;39;20312;-61
2021/07/22 00:39:29;;;;;;;17.40;9.98;;;;;;;;;;3593799;39;20024;-61
2021/07/22 00:41:54;;;;;;;16.15;9.40;;;;;;;;;;3594133;39;20059;-60
2021/07/22 00:44:19;;;;;;;18.08;9.25;;;;;;;;;;3594157;39;20661;-61
2021/07/22 00:46:45;;;;;;;17.63;9.63;;;;;;;;;;3595024;39;20044;-60
2021/07/22 00:49:11;;;;;;;18.15;10.10;;;;;;;;;;3592486;39;20032;-60
2021/07/22 00:51:37;;;;;;;21.55;8.85;;;;;;;;;;3593141;39;20027;-60
2021/07/22 00:54:04;;;;;;;19.25;9.60;;;;;;;;;;3589052;39;20043;-60
2021/07/22 00:56:29;;;;;;;16.85;10.05;;;;;;;;;;3584547;39;20038;-60
2021/07/22 00:58:55;;;;;;;15.82;9.90;;;;;;;;;;3594404;39;20293;-60
2021/07/22 01:01:21;;;;;;;16.73;10.13;;;;;;;;;;3590605;39;20028;-60
2021/07/22 01:03:46;;;;;;;16.67;8.95;;;;;;;;;;3586964;39;20726;-60
2021/07/22 01:06:12;;;;;;;16.88;9.32;;;;;;;;;;3589815;39;20417;-60
2021/07/22 01:08:38;;;;;;;16.35;9.45;;;;;;;;;;3586542;39;20444;-60
2021/07/22 01:11:19;;;;;;;18.90;9.43;;;;;;;;;;3590828;39;20038;-61
2021/07/22 01:13:45;;;;;;;15.45;9.57;;;;;;;;;;3593912;39;20039;-61
2021/07/22 01:16:11;;;;;;;15.52;9.52;;;;;;;;;;3595149;39;20332;-60
2021/07/22 01:18:38;;;;;;;17.25;9.77;;;;;;;;;;3594538;39;20105;-60
2021/07/22 01:21:04;;;;;;;20.58;9.52;;;;;;;;;;3583558;39;20507;-60
2021/07/22 01:23:30;;;;;;;17.10;9.38;;;;;;;;;;3593598;39;20035;-68
2021/07/22 01:26:14;;;;;;;19.55;9.68;;;;;;;;;;3591829;39;20038;-68
2021/07/22 01:28:39;;;;;;;19.33;10.30;;;;;;;;;;3589307;39;20024;-68
2021/07/22 01:31:05;;;;;;;20.52;9.60;;;;;;;;;;3588763;39;20044;-67
2021/07/22 01:33:30;;;;;;;18.13;10.02;;;;;;;;;;3594225;39;20024;-67
2021/07/22 01:35:56;;;;;;;19.33;9.80;;;;;;;;;;3594143;39;20051;-67
2021/07/22 01:38:22;;;;;;;15.82;9.30;;;;;;;;;;3593405;39;20071;-68
2021/07/22 01:40:48;;;;;;;22.75;9.93;;;;;;;;;;3592672;39;20401;-67
2021/07/22 01:43:14;;;;;;;19.65;10.30;;;;;;;;;;3595118;39;20039;-67
2021/07/22 01:45:46;;;;;;;17.10;10.95;;;;;;;;;;3589445;39;20028;-67
2021/07/22 01:48:12;;;;;;;17.95;9.27;;;;;;;;;;3590411;39;20159;-68
2021/07/22 01:50:37;;;;;;;17.33;9.83;;;;;;;;;;3594043;39;20062;-67
2021/07/22 01:53:03;;;;;;;17.03;10.20;;;;;;;;;;3595102;39;20117;-67
2021/07/22 01:55:28;;;;;;;16.65;10.13;;;;;;;;;;3589877;39;20461;-67
2021/07/22 01:58:00;;;;;;;18.15;9.50;;;;;;;;;;3596741;39;20048;-67
2021/07/22 02:00:29;;;;;;;18.10;9.88;;;;;;;;;;3593318;39;20024;-68
2021/07/22 02:02:59;;;;;;;18.45;10.70;;;;;;;;;;3594220;39;20372;-68
2021/07/22 02:05:31;;;;;;;19.65;10.07;;;;;;;;;;3594589;39;20109;-67
2021/07/22 02:07:58;;;;;;;19.13;10.35;;;;;;;;;;3595678;39;20587;-68
2021/07/22 02:10:23;;;;;;;19.33;10.32;;;;;;;;;;3594382;39;20043;-68
2021/07/22 02:12:48;;;;;;;23.23;9.88;;;;;;;;;;3595238;39;20028;-68
2021/07/22 02:15:19;;;;;;;20.67;11.20;;;;;;;;;;3594841;39;20036;-68
2021/07/22 02:17:46;;;;;;;16.58;9.75;;;;;;;;;;3595718;39;20042;-67
2021/07/22 02:20:14;;;;;;;18.33;10.73;;;;;;;;;;3588509;39;20020;-67
2021/07/22 02:22:40;;;;;;;19.27;10.40;;;;;;;;;;3595318;39;20050;-67
2021/07/22 02:25:31;;;;;;;20.05;11.10;;;;;;;;;;3597631;39;20042;-67
2021/07/22 02:27:59;;;;;;;18.42;10.20;;;;;;;;;;3592588;39;20043;-68
2021/07/22 02:30:27;;;;;;;18.67;10.45;;;;;;;;;;3589664;39;20382;-68
2021/07/22 02:32:52;;;;;;;15.17;9.97;;;;;;;;;;3594528;39;20190;-68
2021/07/22 02:35:18;;;;;;;18.60;10.50;;;;;;;;;;3595562;39;20272;-68
2021/07/22 02:38:02;;;;;;;16.85;10.15;;;;;;;;;;3594897;39;20396;-67
2021/07/22 02:40:29;;;;;;;19.25;10.35;;;;;;;;;;3594661;39;20100;-60
2021/07/22 02:42:55;;;;;;;16.38;10.50;;;;;;;;;;3594135;39;20051;-60
2021/07/22 02:45:24;;;;;;;19.75;10.15;;;;;;;;;;3586208;39;20060;-68
2021/07/22 02:47:49;;;;;;;16.92;10.30;;;;;;;;;;3594928;39;20585;-68
2021/07/22 02:50:16;;;;;;;19.33;10.13;;;;;;;;;;3594001;39;20732;-68
2021/07/22 02:52:46;;;;;;;18.50;10.65;;;;;;;;;;3593182;39;20052;-68
2021/07/22 02:55:11;;;;;;;18.70;11.13;;;;;;;;;;3596853;39;20030;-68
2021/07/22 02:57:36;;;;;;;20.60;11.17;;;;;;;;;;3594983;39;20023;-68
2021/07/22 03:00:02;;;;;;;20.50;11.13;;;;;;;;;;3596540;39;20116;-68
2021/07/22 03:02:28;;;;;;;22.40;10.83;;;;;;;;;;3597663;39;20052;-67
2021/07/22 03:04:53;;;;;;;18.52;10.80;;;;;;;;;;3598758;39;20273;-67
2021/07/22 03:07:22;;;;;;;17.73;10.10;;;;;;;;;;3597202;39;20495;-68
2021/07/22 03:09:49;;;;;;;21.10;11.15;;;;;;;;;;3593191;39;20027;-68
2021/07/22 03:12:15;;;;;;;21.42;10.40;;;;;;;;;;3594609;39;20100;-68
2021/07/22 03:14:46;;;;;;;22.00;11.20;;;;;;;;;;3590736;39;20032;-68
2021/07/22 03:17:12;;;;;;;19.20;10.93;;;;;;;;;;3593794;39;20048;-68
2021/07/22 03:19:46;;;;;;;22.25;11.15;;;;;;;;;;3596807;39;20151;-67
2021/07/22 03:22:13;;;;;;;21.27;11.43;;;;;;;;;;3599813;39;20084;-67
2021/07/22 03:24:41;;;;;;;21.98;11.52;;;;;;;;;;3600328;39;20633;-68
2021/07/22 03:27:14;;;;;;;20.33;11.50;;;;;;;;;;3597587;39;20126;-67
2021/07/22 03:29:42;;;;;;;20.70;11.70;;;;;;;;;;3596638;39;20051;-66
2021/07/22 03:32:08;;;;;;;19.02;11.02;;;;;;;;;;3598163;39;20137;-68
2021/07/22 03:34:34;;;;;;;19.77;11.55;;;;;;;;;;3595562;39;20715;-68
2021/07/22 03:37:08;;;;;;;20.65;11.48;;;;;;;;;;3595753;39;20037;-58
2021/07/22 03:39:34;;;;;;;20.65;11.35;;;;;;;;;;3582422;39;20042;-59
2021/07/22 03:42:03;;;;;;;20.83;11.73;;;;;;;;;;3598360;39;20035;-67
2021/07/22 03:44:49;;;;;;;21.08;12.23;;;;;;;;;;3596888;39;20049;-58
2021/07/22 03:47:17;;;;;;;21.35;11.25;;;;;;;;;;3595441;39;20134;-59
2021/07/22 03:49:44;;;;;;;20.25;11.80;;;;;;;;;;3597713;39;20036;-66
2021/07/22 03:52:21;;;;;;;21.25;10.52;;;;;;;;;;3594340;39;20040;-66
2021/07/22 03:54:52;;;;;;;18.77;10.50;;;;;;;;;;3594008;39;20038;-69
2021/07/22 03:57:17;;;;;;;21.83;10.93;;;;;;;;;;3598817;39;20036;-66
2021/07/22 03:59:43;;;;;;;20.33;10.98;;;;;;;;;;3594994;39;20025;-66
2021/07/22 04:02:10;;;;;;;20.77;10.63;;;;;;;;;;3596854;39;20027;-59
2021/07/22 04:04:39;;;;;;;23.00;10.63;;;;;;;;;;3589685;39;20095;-61
2021/07/22 04:07:06;;;;;;;18.33;10.98;;;;;;;;;;3598915;39;20051;-59
2021/07/22 04:09:56;;;;;;;21.85;11.73;;;;;;;;;;3596155;39;20031;-58
2021/07/22 04:12:47;;;;;;;20.50;11.68;;;;;;;;;;3590248;39;20108;-66
2021/07/22 04:15:34;;;;;;;19.75;11.15;;;;;;;;;;3596142;39;20051;-66
2021/07/22 04:18:21;;;;;;;17.23;11.00;;;;;;;;;;3594348;39;20109;-66
2021/07/22 04:21:19;;;;;;;19.67;10.80;;;;;;;;;;3593378;39;20050;-66
2021/07/22 04:23:53;;;;;;;24.20;11.20;;;;;;;;;;3595695;39;20028;-66
2021/07/22 04:26:47;;;;;;;20.30;10.88;;;;;;;;;;3573111;39;20068;-66
2021/07/22 04:29:22;;;;;;;21.42;11.68;;;;;;;;;;3598372;39;20124;-66
2021/07/22 04:31:47;;;;;;;21.42;10.98;;;;;;;;;;3589757;39;20072;-67
2021/07/22 04:34:23;;;;;;;17.58;10.43;;;;;;;;;;3598163;39;20503;-66
2021/07/22 04:37:21;;;;;;;17.90;10.82;;;;;;;;;;3585720;39;20132;-66
2021/07/22 04:40:03;;;;;;;18.50;11.02;;;;;;;;;;3595865;39;20087;-66
2021/07/22 04:42:41;;;;;;;15.93;10.70;;;;;;;;;;3595822;39;20035;-65
2021/07/22 04:45:35;;;;;;;18.50;10.68;;;;;;;;;;3567497;40;20067;-66
2021/07/22 04:48:20;;;;;;;23.00;11.43;;;;;;;;;;3589266;39;20052;-59
2021/07/22 04:51:05;;;;;;;19.50;11.00;;;;;;;;;;3594524;39;20486;-59
2021/07/22 04:53:43;;;;;;;17.80;11.02;;;;;;;;;;3590436;39;20024;-65
2021/07/22 04:56:08;;;;;;;24.55;10.55;;;;;;;;;;3589015;39;20046;-66
2021/07/22 04:58:35;;;;;;;18.48;11.30;;;;;;;;;;3598264;39;20039;-66
2021/07/22 05:01:05;;;;;;;23.88;11.40;;;;;;;;;;3595088;39;20109;-66
2021/07/22 05:03:31;;;;;;;22.98;11.57;;;;;;;;;;3599174;39;20135;-66
2021/07/22 05:05:56;;;;;;;21.92;11.43;;;;;;;;;;3592376;39;20725;-67
2021/07/22 05:08:45;;;;;;;17.88;11.32;;;;;;;;;;3598771;39;20039;-67
2021/07/22 05:11:19;;;;;;;19.90;12.13;;;;;;;;;;3598993;39;20040;-66
2021/07/22 05:14:14;;;;;;;25.88;11.40;;;;;;;;;;3585255;39;20032;-59
2021/07/22 05:16:54;;;;;;;24.08;12.05;;;;;;;;;;3596079;39;20040;-60
2021/07/22 05:19:42;;;;;;;27.15;11.70;;;;;;;;;;3595261;39;20105;-60
2021/07/22 05:22:25;;;;;;;20.80;10.77;;;;;;;;;;3595801;39;20036;-60
2021/07/22 05:25:17;;;;;;;16.02;9.65;;;;;;;;;;3597387;39;20039;-60
2021/07/22 05:28:01;;;;;;;21.65;10.93;;;;;;;;;;3596744;39;20084;-60
2021/07/22 05:30:34;;;;;;;18.85;10.85;;;;;;;;;;3596051;39;20035;-59
2021/07/22 05:33:15;;;;;;;20.88;11.10;;;;;;;;;;3596907;39;20394;-60
2021/07/22 05:35:51;;;;;;;25.05;11.15;;;;;;;;;;3596968;39;20124;-59
2021/07/22 05:38:35;;;;;;;19.90;10.55;;;;;;;;;;3596648;39;20534;-60
2021/07/22 05:41:00;;;;;;;23.80;12.25;;;;;;;;;;3589748;39;20032;-60
2021/07/22 05:43:26;;;;;;;23.30;10.80;;;;;;;;;;3598003;39;20024;-65
2021/07/22 05:45:51;;;;;;;15.98;10.10;;;;;;;;;;3590486;39;20051;-66
2021/07/22 05:48:16;;;;;;;18.57;9.43;;;;;;;;;;3595084;39;20036;-67
2021/07/22 05:50:41;;;;;;;19.60;9.00;;;;;;;;;;3599474;39;20027;-68
2021/07/22 05:53:07;;;;;;;19.40;9.90;;;;;;;;;;3596041;39;20362;-59
2021/07/22 05:55:32;;;;;;;18.00;10.10;;;;;;;;;;3597400;39;20117;-60
2021/07/22 05:57:57;;;;;;;16.33;9.47;;;;;;;;;;3597166;39;20073;-67
2021/07/22 06:00:22;;;;;;;18.33;9.63;;;;;;;;;;3589616;39;20474;-67
2021/07/22 06:02:48;;;;;;;19.77;10.60;;;;;;;;;;3595853;39;20024;-67
2021/07/22 06:05:13;;;;;;;17.90;9.90;;;;;;;;;;3597147;39;20075;-67
2021/07/22 06:07:38;;;;;;;16.87;9.27;;;;;;;;;;3590133;39;20301;-67
2021/07/22 06:10:03;;;;;;;16.17;8.20;;;;;;;;;;3595052;39;20156;-67
2021/07/22 06:12:30;;;;;;;12.70;8.00;;;;;;;;;;3580256;39;20394;-67
2021/07/22 06:14:55;;;;;;;12.88;8.02;;;;;;;;;;3595954;39;20040;-67
2021/07/22 06:17:20;;;;;;;16.10;8.23;;;;;;;;;;3596664;39;20028;-67
2021/07/22 06:19:45;;;;;;;17.57;8.67;;;;;;;;;;3594522;39;20647;-67
2021/07/22 06:22:11;;;;;;;16.47;7.97;;;;;;;;;;3598198;39;20036;-66
2021/07/22 06:24:36;;;;;;;18.03;8.87;;;;;;;;;;3598762;39;20028;-60
2021/07/22 06:27:01;;;;;;;15.83;8.10;;;;;;;;;;3595128;39;20663;-67
2021/07/22 06:29:26;;;;;;;16.70;9.13;;;;;;;;;;3595991;39;20443;-67
2021/07/22 06:31:51;;;;;;;16.00;7.93;;;;;;;;;;3595385;39;20043;-60
2021/07/22 06:34:17;;;;;;;13.93;8.20;;;;;;;;;;3597820;39;20039;-60
2021/07/22 06:36:42;;;;;;;14.23;8.30;;;;;;;;;;3597716;39;20122;-60
2021/07/22 06:39:07;;;;;;;12.50;7.00;;;;;;;;;;3595706;39;20038;-59
2021/07/22 06:41:32;;;;;;;12.20;7.77;;;;;;;;;;3598132;39;20104;-60
2021/07/22 06:43:57;;;;;;;14.63;8.17;;;;;;;;;;3596729;39;20029;-60
2021/07/22 06:46:23;;;;;;;14.27;8.57;;;;;;;;;;3598131;39;20273;-67
2021/07/22 06:48:49;;;;;;;12.63;7.27;;;;;;;;;;3596783;39;20031;-68
2021/07/22 06:51:14;;;;;;;13.52;7.78;;;;;;;;;;3595034;39;20028;-67
2021/07/22 06:53:41;;;;;;;22.13;6.90;;;;;;;;;;3595210;39;20038;-68
2021/07/22 06:56:07;;;;;;;16.05;7.47;;;;;;;;;;3588800;39;20032;-67
2021/07/22 06:58:32;;;;;;;18.40;8.33;;;;;;;;;;3594648;39;20313;-67
2021/07/22 07:00:57;;;;;;;15.88;7.90;;;;;;;;;;3594121;39;20064;-66
2021/07/22 07:03:23;;;;;;;13.52;7.38;;;;;;;;;;3580419;39;20024;-67
2021/07/22 07:05:50;;;;;;;12.75;8.30;;;;;;;;;;3594800;39;20044;-67
2021/07/22 07:08:15;;;;;;;13.40;8.05;;;;;;;;;;3588516;39;20028;-67
2021/07/22 07:10:40;;;;;;;12.43;7.70;;;;;;;;;;3593725;39;20104;-67
2021/07/22 07:13:05;;;;;;;14.60;7.53;;;;;;;;;;3594532;39;20548;-67
2021/07/22 07:15:31;;;;;;;14.30;7.53;;;;;;;;;;3596804;39;20036;-67
2021/07/22 07:17:57;;;;;;;11.85;7.22;;;;;;;;;;3593646;39;20080;-67
2021/07/22 07:20:22;;;;;;;21.58;8.43;;;;;;;;;;3595196;39;20032;-67
2021/07/22 07:22:48;;;;;;;16.10;7.77;;;;;;;;;;3594916;39;20416;-67
2021/07/22 07:25:14;;;;;;;13.20;7.50;;;;;;;;;;3595224;39;20027;-67
2021/07/22 07:27:40;;;;;;;14.30;7.63;;;;;;;;;;3595296;39;20043;-59
2021/07/22 07:30:05;;;;;;;15.43;8.38;;;;;;;;;;3594485;39;20080;-59
2021/07/22 07:32:30;;;;;;;16.67;7.97;;;;;;;;;;3595072;39;20032;-60
2021/07/22 07:34:56;;;;;;;15.97;7.30;;;;;;;;;;3595270;39;20531;-60
2021/07/22 07:37:21;;;;;;;13.05;7.63;;;;;;;;;;3595396;39;20241;-60
2021/07/22 07:39:46;;;;;;;14.88;7.63;;;;;;;;;;3594471;39;20050;-60
2021/07/22 07:42:11;;;;;;;14.70;7.37;;;;;;;;;;3593113;39;20673;-60
2021/07/22 07:44:37;;;;;;;14.90;6.93;;;;;;;;;;3594549;39;20036;-60
2021/07/22 07:47:02;;;;;;;13.33;7.20;;;;;;;;;;3595390;39;20409;-60
2021/07/22 07:49:27;;;;;;;16.35;7.72;;;;;;;;;;3593136;39;20035;-60
2021/07/22 07:51:52;;;;;;;15.33;7.50;;;;;;;;;;3596119;39;20035;-60
2021/07/22 07:54:18;;;;;;;15.27;7.30;;;;;;;;;;3589314;39;20023;-60
2021/07/22 07:56:43;;;;;;;24.57;8.13;;;;;;;;;;3597580;39;20047;-60
2021/07/22 07:59:08;;;;;;;15.10;7.53;;;;;;;;;;3597583;39;21087;-60
2021/07/22 08:01:34;;;;;;;18.37;8.37;;;;;;;;;;3588069;39;20281;-60
2021/07/22 08:03:59;;;;;;;16.50;7.20;;;;;;;;;;3589790;39;20541;-61
2021/07/22 08:06:24;;;;;;;13.03;7.40;;;;;;;;;;3596050;39;20028;-61
2021/07/22 08:08:49;;;;;;;12.82;7.25;;;;;;;;;;3594650;39;20073;-61
2021/07/22 08:11:15;;;;;;;12.33;7.63;;;;;;;;;;3597265;39;20038;-61
2021/07/22 08:13:40;;;;;;;12.90;8.13;;;;;;;;;;3596389;39;20294;-61
2021/07/22 08:16:05;;;;;;;22.33;11.07;;;;;;;;;;3595205;39;20028;-61
2021/07/22 08:18:31;;;;;;;15.47;8.43;;;;;;;;;;3596921;39;20527;-60
2021/07/22 08:20:56;;;;;;;14.20;8.13;;;;;;;;;;3596179;39;20027;-60
2021/07/22 08:23:21;;;;;;;21.13;10.97;;;;;;;;;;3596928;39;20048;-60
2021/07/22 08:25:47;;;;;;;19.02;8.95;;;;;;;;;;3596253;39;20039;-60
2021/07/22 08:28:12;;;;;;;19.85;9.05;;;;;;;;;;3597364;39;20037;-60
2021/07/22 08:30:37;;;;;;;16.73;8.10;;;;;;;;;;3595608;39;20051;-60
2021/07/22 08:33:03;;;;;;;16.75;7.93;;;;;;;;;;3598865;39;20281;-62
2021/07/22 08:35:28;;;;;;;15.00;8.33;;;;;;;;;;3596410;39;20691;-62
2021/07/22 08:37:53;;;;;;;19.70;8.67;;;;;;;;;;3596481;39;20027;-63
2021/07/22 08:40:18;;;;;;;16.27;8.30;;;;;;;;;;3598258;39;20731;-62
2021/07/22 08:42:45;;;;;;;12.73;7.57;;;;;;;;;;3597050;39;20656;-62
2021/07/22 08:45:11;;;;;;;16.95;8.25;;;;;;;;;;3594346;39;20313;-62
2021/07/22 08:47:36;;;;;;;15.32;8.23;;;;;;;;;;3597643;39;20028;-63
2021/07/22 08:50:01;;;;;;;15.90;8.30;;;;;;;;;;3593862;39;20036;-61
2021/07/22 08:52:27;;;;;;;12.93;7.50;;;;;;;;;;3591733;39;20764;-62
2021/07/22 08:54:52;;;;;;;11.48;7.60;;;;;;;;;;3596664;39;20031;-63
2021/07/22 08:57:18;;;;;;;18.57;8.07;;;;;;;;;;3598729;39;20079;-62
2021/07/22 08:59:43;;;;;;;11.30;6.80;;;;;;;;;;3590706;39;20024;-62
2021/07/22 09:02:08;;;;;;;17.03;8.33;;;;;;;;;;3597135;39;20031;-62
2021/07/22 09:04:33;;;;;;;17.33;7.93;;;;;;;;;;3591849;39;20264;-62
2021/07/22 09:06:59;;;;;;;11.07;7.17;;;;;;;;;;3589583;39;20032;-62
2021/07/22 09:09:24;;;;;;;18.23;8.70;;;;;;;;;;3599208;39;20322;-62
2021/07/22 09:11:49;;;;;;;11.63;7.22;;;;;;;;;;3597886;39;20043;-62
2021/07/22 09:14:15;;;;;;;14.95;7.75;;;;;;;;;;3598111;39;20028;-59
2021/07/22 09:16:40;;;;;;;12.47;7.03;;;;;;;;;;3599381;39;20309;-59
2021/07/22 09:19:05;;;;;;;14.23;7.03;;;;;;;;;;3594965;39;20899;-61
2021/07/22 09:21:30;;;;;;;14.77;7.87;;;;;;;;;;3597453;39;20094;-61
2021/07/22 09:23:56;;;;;;;16.40;7.77;;;;;;;;;;3590782;39;20702;-59
2021/07/22 09:26:21;;;;;;;11.70;7.50;;;;;;;;;;3598862;39;20305;-59
2021/07/22 09:28:46;;;;;;;10.43;7.07;;;;;;;;;;3596574;39;20152;-59
2021/07/22 09:31:11;;;;;;;12.00;6.73;;;;;;;;;;3595503;39;20048;-59
2021/07/22 09:33:37;;;;;;;10.98;6.28;;;;;;;;;;3597576;39;20040;-62
2021/07/22 09:36:02;;;;;;;14.87;7.03;;;;;;;;;;3596777;39;20417;-59
2021/07/22 09:38:30;;;;;;;9.43;6.22;;;;;;;;;;3601092;39;20032;-59
2021/07/22 09:40:56;;;;;;;10.98;6.50;;;;;;;;;;3589515;39;20127;-59
2021/07/22 09:43:21;;;;;;;10.93;6.90;;;;;;;;;;3596907;39;20024;-66
2021/07/22 09:45:46;;;;;;;11.87;6.83;;;;;;;;;;3598658;39;20281;-65
2021/07/22 09:48:11;;;;;;;18.23;6.73;;;;;;;;;;3590760;39;20036;-65
2021/07/22 09:50:36;;;;;;;14.67;7.33;;;;;;;;;;3598641;39;20578;-65
2021/07/22 09:53:02;;;;;;;12.40;7.03;;;;;;;;;;3595984;39;20823;-66
2021/07/22 09:55:27;;;;;;;14.37;7.10;;;;;;;;;;3598306;39;20628;-66
2021/07/22 09:57:52;;;;;;;14.65;7.90;;;;;;;;;;3597726;39;20019;-65
2021/07/22 10:00:17;;;;;;;17.03;7.27;;;;;;;;;;3596145;39;20052;-65
2021/07/22 10:02:43;;;;;;;16.60;7.40;;;;;;;;;;3596042;39;20184;-65
2021/07/22 10:05:09;;;;;;;12.30;7.60;;;;;;;;;;3597343;39;20034;-65
2021/07/22 10:07:35;;;;;;;16.33;7.70;;;;;;;;;;3596721;39;20030;-65
2021/07/22 10:10:01;;;;;;;11.90;7.47;;;;;;;;;;3597801;39;20024;-65
2021/07/22 10:12:26;;;;;;;12.90;7.40;;;;;;;;;;3596846;39;20034;-66
2021/07/22 10:14:51;;;;;;;12.23;7.63;;;;;;;;;;3597379;39;20023;-65
2021/07/22 10:17:16;;;;;;;12.67;7.80;;;;;;;;;;3596069;39;20026;-66
2021/07/22 10:19:41;;;;;;;15.43;9.90;;;;;;;;;;3598281;39;20254;-64
2021/07/22 10:22:07;;;;;;;17.60;8.80;;;;;;;;;;3597016;39;20104;-66
2021/07/22 10:24:32;;;;;;;13.77;7.72;;;;;;;;;;3594635;39;20090;-66
2021/07/22 10:26:58;;;;;;;14.87;8.90;;;;;;;;;;3596655;39;20038;-66
2021/07/22 10:29:23;;;;;;;16.43;8.67;;;;;;;;;;3591565;39;20075;-66
2021/07/22 10:31:48;;;;;;;14.73;8.47;;;;;;;;;;3598499;39;20269;-66
2021/07/22 10:34:14;;;;;;;18.40;7.97;;;;;;;;;;3598919;39;20429;-66
2021/07/22 10:36:43;;;;;;;15.73;8.80;;;;;;;;;;3598243;39;20121;-66
2021/07/22 10:39:08;;;;;;;13.35;8.85;;;;;;;;;;3598410;39;20039;-66
2021/07/22 10:41:35;;;;;;;17.27;8.48;;;;;;;;;;3597229;39;20028;-66
2021/07/22 10:44:00;;;;;;;14.90;8.35;;;;;;;;;;3598702;39;20024;-66
2021/07/22 10:46:25;;;;;;;15.93;8.80;;;;;;;;;;3595472;39;20036;-66
2021/07/22 10:48:50;;;;;;;13.27;8.13;;;;;;;;;;3596926;39;20039;-67
2021/07/22 10:51:15;;;;;;;17.83;8.83;;;;;;;;;;3596436;39;20252;-66
2021/07/22 10:53:41;;;;;;;14.52;8.48;;;;;;;;;;3599225;39;20401;-64
2021/07/22 10:56:06;;;;;;;15.00;9.07;;;;;;;;;;3597123;39;20094;-64
2021/07/22 10:58:34;;;;;;;14.83;7.87;;;;;;;;;;3597271;39;20020;-64
2021/07/22 11:00:59;;;;;;;16.60;8.63;;;;;;;;;;3596317;39;20292;-64
2021/07/22 11:03:24;;;;;;;14.07;8.17;;;;;;;;;;3598044;39;20063;-64
2021/07/22 11:05:50;;;;;;;14.87;9.13;;;;;;;;;;3596465;39;20104;-64
2021/07/22 11:08:15;;;;;;;15.23;8.03;;;;;;;;;;3594447;39;20406;-65
2021/07/22 11:10:40;;;;;;;17.47;8.37;;;;;;;;;;3597816;39;20020;-64
2021/07/22 11:13:05;;;;;;;19.27;9.23;;;;;;;;;;3596821;39;20081;-64
2021/07/22 11:15:31;;;;;;;16.23;8.10;;;;;;;;;;3597435;39;20850;-65
2021/07/22 11:17:56;;;;;;;15.60;9.30;;;;;;;;;;3596714;39;20031;-64
2021/07/22 11:20:21;;;;;;;16.08;8.65;;;;;;;;;;3589899;39;20028;-64
2021/07/22 11:22:46;;;;;;;12.67;8.80;;;;;;;;;;3596379;39;20035;-65
2021/07/22 11:25:12;;;;;;;16.30;9.00;;;;;;;;;;3582257;39;20167;-64
2021/07/22 11:27:37;;;;;;;16.43;8.87;;;;;;;;;;3597178;39;20035;-66
2021/07/22 11:30:02;;;;;;;16.83;8.57;;;;;;;;;;3598048;39;20635;-65
2021/07/22 11:32:28;;;;;;;13.77;8.07;;;;;;;;;;3596536;39;20056;-65
2021/07/22 11:34:53;;;;;;;15.85;8.63;;;;;;;;;;3598504;39;20064;-65
2021/07/22 11:37:19;;;;;;;15.77;8.13;;;;;;;;;;3596952;39;20116;-65
2021/07/22 11:39:44;;;;;;;15.63;7.60;;;;;;;;;;3599215;39;20462;-65
2021/07/22 11:42:09;;;;;;;16.48;8.10;;;;;;;;;;3583802;39;20262;-65
2021/07/22 11:44:35;;;;;;;13.15;8.07;;;;;;;;;;3597156;39;20033;-65
2021/07/22 11:47:00;;;;;;;15.90;8.70;;;;;;;;;;3597743;39;20519;-63
2021/07/22 11:49:25;;;;;;;11.80;8.27;;;;;;;;;;3596927;39;20024;-63
2021/07/22 11:51:50;;;;;;;12.90;8.17;;;;;;;;;;3596930;39;20032;-63
2021/07/22 11:54:17;;;;;;;15.20;8.27;;;;;;;;;;3598108;39;20400;-63
2021/07/22 11:56:42;;;;;;;13.65;8.40;;;;;;;;;;3596704;39;20445;-63
2021/07/22 11:59:08;;;;;;;14.63;8.40;;;;;;;;;;3598348;39;20035;-63
2021/07/22 12:01:36;;;;;;;14.93;9.13;;;;;;;;;;3597328;39;20026;-66
2021/07/22 12:04:01;;;;;;;15.52;8.18;;;;;;;;;;3598951;39;20032;-66
2021/07/22 12:06:27;;;;;;;13.63;8.13;;;;;;;;;;3591376;39;20890;-66
2021/07/22 12:08:52;;;;;;;14.60;9.23;;;;;;;;;;3597168;39;20031;-65
2021/07/22 12:11:17;;;;;;;11.83;7.70;;;;;;;;;;3598973;39;20108;-66
2021/07/22 12:13:42;;;;;;;13.27;8.23;;;;;;;;;;3595774;39;20033;-66
2021/07/22 12:16:07;;;;;;;14.50;9.00;;;;;;;;;;3599748;39;20339;-66
2021/07/22 12:18:33;;;;;;;18.17;7.97;;;;;;;;;;3597214;39;20032;-66
2021/07/22 12:20:58;;;;;;;19.50;8.93;;;;;;;;;;3597524;39;20024;-65
2021/07/22 12:23:23;;;;;;;14.93;9.03;;;;;;;;;;3590875;39;20112;-66
2021/07/22 12:25:48;;;;;;;11.63;8.17;;;;;;;;;;3595078;39;20035;-65
2021/07/22 12:28:13;;;;;;;78.93;44.23;;;;;;;;;;3596706;39;20036;-66
2021/07/22 12:30:38;;;;;;;16.00;9.87;;;;;;;;;;3597799;39;20042;-66
2021/07/22 12:33:04;;;;;;;13.93;8.83;;;;;;;;;;3597400;39;20381;-66
2021/07/22 12:35:29;;;;;;;15.75;9.20;;;;;;;;;;3596795;39;20036;-66
2021/07/22 12:37:55;;;;;;;14.10;8.57;;;;;;;;;;3596914;39;20027;-66
2021/07/22 12:40:20;;;;;;;16.67;9.23;;;;;;;;;;3597549;39;20028;-64
2021/07/22 12:42:46;;;;;;;14.53;8.43;;;;;;;;;;3595644;39;20072;-63
2021/07/22 12:45:11;;;;;;;12.90;9.00;;;;;;;;;;3598130;39;20035;-64
2021/07/22 12:47:37;;;;;;;15.47;8.70;;;;;;;;;;3594497;39;20035;-64
2021/07/22 12:50:02;;;;;;;15.77;9.10;;;;;;;;;;3596567;39;20019;-64
2021/07/22 12:52:27;;;;;;;14.13;9.13;;;;;;;;;;3590623;39;20035;-64
2021/07/22 12:54:53;;;;;;;15.45;9.25;;;;;;;;;;3595934;39;20091;-64
2021/07/22 12:57:18;;;;;;;12.97;8.30;;;;;;;;;;3597089;39;20120;-64
2021/07/22 12:59:43;;;;;;;15.57;8.95;;;;;;;;;;3598146;39;20076;-64
2021/07/22 13:02:08;;;;;;;20.03;9.47;;;;;;;;;;3597701;39;20833;-63
2021/07/22 13:04:34;;;;;;;15.80;9.60;;;;;;;;;;3599427;39;20580;-63
2021/07/22 13:06:59;;;;;;;25.25;11.95;;;;;;;;;;3598581;39;20349;-64
2021/07/22 13:09:24;;;;;;;20.93;10.00;;;;;;;;;;3581916;39;20031;-64
2021/07/22 13:11:49;;;;;;;18.30;9.67;;;;;;;;;;3597763;39;20327;-64
2021/07/22 13:14:15;;;;;;;19.70;10.13;;;;;;;;;;3598237;39;20039;-64
2021/07/22 13:16:40;;;;;;;14.65;9.63;;;;;;;;;;3599586;39;20060;-64
2021/07/22 13:19:07;;;;;;;15.65;8.75;;;;;;;;;;3595932;39;20304;-64
2021/07/22 13:21:33;;;;;;;16.05;8.80;;;;;;;;;;3598092;39;20060;-64
2021/07/22 13:23:59;;;;;;;16.55;8.73;;;;;;;;;;3595155;39;20024;-64
2021/07/22 13:26:25;;;;;;;15.07;8.53;;;;;;;;;;3595100;39;20060;-64
2021/07/22 13:28:50;;;;;;;17.20;9.23;;;;;;;;;;3596101;39;20051;-63
2021/07/22 13:31:15;;;;;;;17.80;10.18;;;;;;;;;;3595055;39;20108;-64
2021/07/22 13:33:42;;;;;;;17.23;9.57;;;;;;;;;;3597138;39;20679;-64
2021/07/22 13:36:07;;;;;;;18.70;8.68;;;;;;;;;;3590470;39;20420;-64
2021/07/22 13:38:32;;;;;;;21.03;10.00;;;;;;;;;;3590704;39;20031;-64
2021/07/22 13:40:58;;;;;;;15.07;8.55;;;;;;;;;;3597775;39;20044;-66
2021/07/22 13:43:23;;;;;;;15.57;8.20;;;;;;;;;;3596483;39;20028;-66
2021/07/22 13:45:48;;;;;;;15.63;10.13;;;;;;;;;;3597943;39;20508;-66
2021/07/22 13:48:13;;;;;;;17.53;9.50;;;;;;;;;;3597178;39;20035;-66
2021/07/22 13:50:40;;;;;;;15.07;8.57;;;;;;;;;;3595095;39;20251;-66
2021/07/22 13:53:05;;;;;;;13.10;8.23;;;;;;;;;;3597032;39;20484;-66
2021/07/22 13:55:30;;;;;;;15.23;9.35;;;;;;;;;;3597187;39;20028;-66
2021/07/22 13:57:56;;;;;;;17.60;9.40;;;;;;;;;;3597363;39;20023;-66
2021/07/22 14:00:21;;;;;;;14.87;8.47;;;;;;;;;;3596577;39;20035;-66
2021/07/22 14:02:46;;;;;;;17.90;9.93;;;;;;;;;;3593680;39;20016;-66
2021/07/22 14:05:12;;;;;;;16.83;8.97;;;;;;;;;;3596187;39;20043;-66
2021/07/22 14:07:37;;;;;;;15.70;9.82;;;;;;;;;;3595003;39;20050;-66
2021/07/22 14:10:02;;;;;;;17.20;10.13;;;;;;;;;;3598180;39;20040;-66
2021/07/22 14:12:28;;;;;;;15.40;9.13;;;;;;;;;;3590077;39;20363;-65
2021/07/22 14:14:53;;;;;;;17.37;9.27;;;;;;;;;;3596006;39;20027;-66
2021/07/22 14:17:18;;;;;;;24.57;11.13;;;;;;;;;;3596950;39;20069;-66
2021/07/22 14:19:43;;;;;;;16.97;10.17;;;;;;;;;;3594612;39;20029;-66
2021/07/22 14:22:08;;;;;;;15.27;9.87;;;;;;;;;;3598299;39;20099;-66
2021/07/22 14:24:34;;;;;;;13.30;9.30;;;;;;;;;;3598200;39;21026;-64
2021/07/22 14:26:59;;;;;;;12.48;8.20;;;;;;;;;;3596357;39;20125;-64